Nearby METAR Reports

 

EHAM - Amsterdam/Schiph, Netherlands
Distance from station: WNW 24km
Updated: 11/12/2018 12:25
Nearby showers, Partly cloudy
Nearby showers, Partly cloudy
 Wind from WNW
Wind: WNW 7 km/h
Temperature: 8°C
Wind Chill: 7°C
Dew Point: 4°C
Humidity: 76%
Barometer: 1024 hPa
Summary: Nearby Showers
Clouds: Partly cloudy
Visibility: 10 km
Cloud details: Few Clouds 610 m
Few Clouds 701 m
Partly cloudy 1067 m
2018/12/11 11:25 EHAM 111125Z 29004KT 250V010 9999 VCSH FEW020 FEW023CB SCT035 08/04 Q1024 NOSIG
EHDL - Deelen Rnlafb, Netherlands
Distance from station: ESE 55km
Updated: 11/12/2018 12:25
Mostly cloudy
Mostly cloudy
 Wind from WNW
Wind: WNW 13 km/h
Temperature: 6°C
Wind Chill: 3°C
Dew Point: 4°C
Humidity: 87%
Barometer: 1023 hPa
Clouds: Mostly cloudy
Visibility: 10 km
Cloud details: Partly cloudy 945 m
Mostly cloudy 1494 m
2018/12/11 11:25 EHDL 111125Z AUTO 30007KT 270V360 9999 SCT031 BKN049 06/04 Q1023 BLU
EHRD - Rotterdam Airpor, Netherlands
Distance from station: SW 55km
Updated: 11/12/2018 12:25
Partly cloudy
Partly cloudy
 Wind from NNW
Wind: NNW 9 km/h
Temperature: 7°C
Wind Chill: 6°C
Dew Point: 3°C
Humidity: 76%
Barometer: 1024 hPa
Clouds: Partly cloudy
Visibility: 10 km
Cloud details: Partly cloudy 1463 m
2018/12/11 11:25 EHRD 111125Z AUTO 33005KT 290V360 9999 SCT048 07/03 Q1024 NOSIG
 
EHGR - Gilze-Rijen Rnla, Netherlands
Distance from station: S 75km
Updated: 11/12/2018 12:25
Overcast
Overcast
 Wind from W
Wind: W 11 km/h
Temperature: 7°C
Wind Chill: 5°C
Dew Point: 3°C
Humidity: 76%
Barometer: 1024 hPa
Clouds: Overcast
Visibility: 10 km
Cloud details: Mostly cloudy 853 m
Mostly cloudy 1067 m
Overcast 1280 m
2018/12/11 11:25 EHGR 111125Z AUTO 28006KT 240V320 9999 BKN028 BKN035 OVC042 07/03 Q1024 BLU 27005KT 9999 FEW025 BKN050
EHVK - Volkel Rnlafb, Netherlands
Distance from station: SSE 78km
Updated: 11/12/2018 12:25
Partly cloudy
Partly cloudy
 Wind from WNW
Wind: WNW 9 km/h
Temperature: 7°C
Wind Chill: 6°C
Dew Point: 3°C
Humidity: 76%
Barometer: 1024 hPa
Clouds: Partly cloudy
Visibility: 10 km
Cloud details: Partly cloudy 1646 m
2018/12/11 11:25 EHVK 111125Z AUTO 29005KT 260V330 9999 SCT054 07/03 Q1024 BLU
EHKD - De Kooy (navy), Netherlands
Distance from station: NNW 80km
Updated: 11/12/2018 12:38
Light rain, Overcast
Light rain, Overcast
 Wind from NNW
Wind: NNW 17 km/h
Temperature: 7°C
Wind Chill: 4°C
Dew Point: 3°C
Humidity: 76%
Barometer: 1024 hPa
Summary: Light rain
Clouds: Overcast
Visibility: 10 km
Cloud details: Few Clouds 610 m
Mostly cloudy 823 m
Overcast 945 m
2018/12/11 11:38 EHKD 111138Z AUTO 34009KT 300V030 9999 -RA FEW020 BKN027 OVC031 07/03 Q1024 BLU 35010KT 9999 FEW020 SCT025 BKN040
 
EHEH - Eindhoven Rnlafb, Netherlands
Distance from station: SSE 89km
Updated: 11/12/2018 12:25
Mostly cloudy
Mostly cloudy
 Wind from W
Wind: W 11 km/h
Temperature: 6°C
Wind Chill: 4°C
Dew Point: 2°C
Humidity: 76%
Barometer: 1024 hPa
Clouds: Mostly cloudy
Visibility: 10 km
Cloud details: Few Clouds 1311 m
Partly cloudy 1676 m
Mostly cloudy 1859 m
2018/12/11 11:25 EHEH 111125Z AUTO 27006KT 240V330 9999 FEW043 SCT055 BKN061 06/02 Q1024 BLU 26007KT 9999 SCT030 BKN045
EDLV - Niederrhein, Germany
Distance from station: SE 100km
Updated: 11/12/2018 12:20
Clear
Clear
 Wind from W
Wind: W 13 km/h
Temperature: 7°C
Wind Chill: 5°C
Dew Point: 3°C
Humidity: 76%
Barometer: 1024 hPa
Summary: Clear
Visibility: greater than 10 km
2018/12/11 11:20 EDLV 111120Z 28007KT CAVOK 07/03 Q1024
EHQE - Hoorn-A Sea, Netherlands
Distance from station: NW 100km
Updated: 11/12/2018 12:25
Mostly cloudy
Mostly cloudy
 Wind from NNW
Wind: NNW 26 km/h
Temperature: 8°C
Wind Chill: 4°C
Dew Point: 2°C
Humidity: 66%
Barometer: 1024 hPa
Clouds: Mostly cloudy
Visibility: 10 km
Cloud details: Few Clouds 792 m
Mostly cloudy 1036 m
2018/12/11 11:25 EHQE 111125Z AUTO 33014KT 9999 FEW026 BKN034 08/02 Q1024 W///H///
 
EHWO - Woensdrecht Rnla, Netherlands
Distance from station: SSW 103km
Updated: 11/12/2018 12:25
Overcast
Overcast
 Wind from W
Wind: W 11 km/h
Temperature: 7°C
Wind Chill: 5°C
Dew Point: 3°C
Humidity: 76%
Barometer: 1025 hPa
Clouds: Overcast
Visibility: 10 km
Cloud details: Overcast 9754 m
2018/12/11 11:25 EHWO 111125Z AUTO 27006KT 230V310 9999 OVC320 07/03 Q1025 BLU 28004KT 9999 BKN045
EHSC - Goeree Le Sea, Netherlands
Distance from station: WSW 104km
Updated: 11/12/2018 12:25

 Wind from NNW
Wind: NNW 19 km/h
Temperature: 8°C
Wind Chill: 4°C
Dew Point: 0°C
Humidity: 57%
Barometer: 1025 hPa
Visibility: 10 km
2018/12/11 11:25 EHSC 111125Z AUTO 34010KT 9999 ///////// 08/M00 Q1025 W09/H14
EHVL - Vlieland Island, Netherlands
Distance from station: N 112km
Updated: 11/12/2018 12:25
Mostly cloudy
Mostly cloudy
 Wind from N
Wind: N 17 km/h
Temperature: 8°C
Wind Chill: 5°C
Dew Point: 2°C
Humidity: 66%
Barometer: 1023 hPa
Clouds: Mostly cloudy
Visibility: 10 km
Cloud details: Few Clouds 823 m
Partly cloudy 1006 m
Mostly cloudy 1189 m
2018/12/11 11:25 EHVL 111125Z AUTO 01009KT 9999 FEW027 SCT033 BKN039 08/02 Q1023 REDZ BLU
 
EHLW - Leeuwarden Rnlaf, Netherlands
Distance from station: NNE 118km
Updated: 11/12/2018 12:25
Overcast
Overcast
 Wind from NNW
Wind: NNW 15 km/h
Temperature: 7°C
Wind Chill: 4°C
Dew Point: 3°C
Humidity: 76%
Barometer: 1023 hPa
Clouds: Overcast
Visibility: 10 km
Cloud details: Few Clouds 549 m
Mostly cloudy 1006 m
Overcast 1158 m
2018/12/11 11:25 EHLW 111125Z AUTO 34008KT 280V360 9999 FEW018 BKN033 OVC038 07/03 Q1023 BLU
EBBL - Kleine-Brogel(Ba, Belgium
Distance from station: SSE 121km
Updated: 11/12/2018 12:25
Partly cloudy
Partly cloudy
 Wind from WNW
Wind: WNW 13 km/h
Temperature: 7°C
Wind Chill: 5°C
Dew Point: 2°C
Humidity: 71%
Barometer: 1025 hPa
Clouds: Partly cloudy
Visibility: 10 km
Cloud details: Few Clouds 1067 m
Partly cloudy 1372 m
2018/12/11 11:25 EBBL 111125Z 29007KT 9999 FEW035 SCT045 07/02 Q1025 BLU BLU
EHPG - P11-B Sea, Netherlands
Distance from station: W 121km
Updated: 11/12/2018 12:25
Mostly cloudy
Mostly cloudy
 Wind from WNW
Wind: WNW 11 km/h
Temperature: 8°C
Wind Chill: 6°C
Dew Point: 0°C
Humidity: 57%
Barometer: 1025 hPa
Clouds: Mostly cloudy
Visibility: 10 km
Cloud details: Mostly cloudy 1097 m
Mostly cloudy 1219 m
2018/12/11 11:25 EHPG 111125Z AUTO 30006KT 240V010 9999 BKN036 BKN040 08/M00 Q1025 W///H///
 
EBAW - Antwerp/Deurne, Belgium
Distance from station: SSW 123km
Updated: 11/12/2018 12:20
Partly cloudy
Partly cloudy
 Wind from W
Wind: W 11 km/h
Temperature: 7°C
Wind Chill: 5°C
Dew Point: 2°C
Humidity: 71%
Barometer: 1025 hPa
Clouds: Partly cloudy
Visibility: 10 km
Cloud details: Few Clouds 1067 m
Partly cloudy 1341 m
2018/12/11 11:20 EBAW 111120Z 28006KT 9999 FEW035 SCT044 07/02 Q1025 NOSIG
EHSA - Euro Platform, Netherlands
Distance from station: W 127km
Updated: 11/12/2018 12:25

 Wind from NNW
Wind: NNW 13 km/h
Temperature: 8°C
Wind Chill: 6°C
Dew Point: 1°C
Humidity: 62%
Barometer: 1025 hPa
Visibility: 10 km
2018/12/11 11:25 EHSA 111125Z AUTO 33007KT 310V010 9999 ///////// 08/01 Q1025 W08/H17
EBDT - Schaffen, Belgium
Distance from station: S 135km
Updated: 11/12/2018 12:25
Partly cloudy
Partly cloudy
 Wind from WNW
Wind: WNW 9 km/h
Temperature: 6°C
Wind Chill: 4°C
Dew Point: 2°C
Humidity: 76%
Barometer: 1025 hPa
Clouds: Partly cloudy
Visibility: 10 km
Cloud details: Few Clouds 1524 m
Partly cloudy 6401 m
2018/12/11 11:25 EBDT 111125Z 29005KT 9999 FEW050 SCT210 06/02 Q1025 BLU BLU
 
EHFS - Vlissingen, Netherlands
Distance from station: SW 135km
Updated: 11/12/2018 12:25
Partly cloudy
Partly cloudy
 Wind from NNW
Wind: NNW 7 km/h
Temperature: 8°C
Wind Chill: 7°C
Dew Point: 1°C
Humidity: 62%
Barometer: 1025 hPa
Clouds: Partly cloudy
Visibility: 10 km
2018/12/11 11:25 EHFS 111125Z AUTO 33004KT 290V350 9999 NSC 08/01 Q1025 W///H///
EHGG - Groningen/Eelde, Netherlands
Distance from station: NE 139km
Updated: 11/12/2018 12:25
Mostly cloudy
Mostly cloudy
 Wind from NW
Wind: NW 19 km/h
Temperature: 7°C
Wind Chill: 4°C
Dew Point: 3°C
Humidity: 76%
Barometer: 1022 hPa
Clouds: Mostly cloudy
Visibility: 10 km
Cloud details: Mostly cloudy 1067 m
2018/12/11 11:25 EHGG 111125Z AUTO 31010KT 270V340 9999 BKN035 07/03 Q1022 NOSIG